sensor_id;sensor_type;location;lat;lon;timestamp;pressure;altitude;pressure_sealevel;temperature;humidity
52927;BME280;40783;49.710;8.842;2022-12-29T00:02:18;98416.94;;;9.85;100.00
52927;BME280;40783;49.710;8.842;2022-12-29T00:04:45;98399.09;;;9.85;100.00
52927;BME280;40783;49.710;8.842;2022-12-29T00:07:10;98407.78;;;9.87;100.00
52927;BME280;40783;49.710;8.842;2022-12-29T00:09:36;98396.91;;;9.89;100.00
52927;BME280;40783;49.710;8.842;2022-12-29T00:12:04;98399.78;;;9.87;100.00
52927;BME280;40783;49.710;8.842;2022-12-29T00:14:32;98403.59;;;9.85;100.00
52927;BME280;40783;49.710;8.842;2022-12-29T00:17:16;98383.25;;;9.84;100.00
52927;BME280;40783;49.710;8.842;2022-12-29T00:19:41;98390.75;;;9.88;100.00
52927;BME280;40783;49.710;8.842;2022-12-29T00:22:25;98384.25;;;9.83;100.00
52927;BME280;40783;49.710;8.842;2022-12-29T00:25:11;98387.41;;;9.86;100.00
52927;BME280;40783;49.710;8.842;2022-12-29T00:27:56;98390.44;;;9.83;100.00
52927;BME280;40783;49.710;8.842;2022-12-29T00:30:40;98390.59;;;9.82;100.00
52927;BME280;40783;49.710;8.842;2022-12-29T00:33:32;98392.75;;;9.86;100.00
52927;BME280;40783;49.710;8.842;2022-12-29T00:36:18;98382.09;;;9.86;100.00
52927;BME280;40783;49.710;8.842;2022-12-29T00:39:04;98386.72;;;9.92;100.00
52927;BME280;40783;49.710;8.842;2022-12-29T00:41:50;98381.09;;;9.79;100.00
52927;BME280;40783;49.710;8.842;2022-12-29T00:44:36;98382.78;;;9.80;100.00
52927;BME280;40783;49.710;8.842;2022-12-29T00:47:02;98376.09;;;9.76;100.00
52927;BME280;40783;49.710;8.842;2022-12-29T00:49:30;98376.09;;;9.76;100.00
52927;BME280;40783;49.710;8.842;2022-12-29T00:52:07;98372.44;;;9.77;100.00
52927;BME280;40783;49.710;8.842;2022-12-29T00:54:37;98376.63;;;9.71;100.00
52927;BME280;40783;49.710;8.842;2022-12-29T00:57:05;98378.78;;;9.68;100.00
52927;BME280;40783;49.710;8.842;2022-12-29T00:59:31;98371.84;;;9.50;100.00
52927;BME280;40783;49.710;8.842;2022-12-29T01:01:57;98394.56;;;9.38;100.00
52927;BME280;40783;49.710;8.842;2022-12-29T01:04:24;98391.91;;;9.29;100.00
52927;BME280;40783;49.710;8.842;2022-12-29T01:06:52;98390.56;;;9.25;100.00
52927;BME280;40783;49.710;8.842;2022-12-29T01:09:18;98397.25;;;9.21;100.00
52927;BME280;40783;49.710;8.842;2022-12-29T01:12:03;98392.91;;;9.20;100.00
52927;BME280;40783;49.710;8.842;2022-12-29T01:14:33;98382.56;;;9.17;100.00
52927;BME280;40783;49.710;8.842;2022-12-29T01:16:58;98390.41;;;9.18;100.00
52927;BME280;40783;49.710;8.842;2022-12-29T01:19:24;98381.75;;;9.16;100.00
52927;BME280;40783;49.710;8.842;2022-12-29T01:21:52;98386.22;;;9.16;100.00
52927;BME280;40783;49.710;8.842;2022-12-29T01:24:18;98388.75;;;9.17;100.00
52927;BME280;40783;49.710;8.842;2022-12-29T01:26:46;98388.22;;;9.14;100.00
52927;BME280;40783;49.710;8.842;2022-12-29T01:29:13;98384.91;;;9.12;100.00
52927;BME280;40783;49.710;8.842;2022-12-29T01:31:38;98379.91;;;9.09;100.00
52927;BME280;40783;49.710;8.842;2022-12-29T01:34:04;98379.56;;;9.12;100.00
52927;BME280;40783;49.710;8.842;2022-12-29T01:36:30;98383.22;;;9.19;100.00
52927;BME280;40783;49.710;8.842;2022-12-29T01:38:55;98390.91;;;9.22;100.00
52927;BME280;40783;49.710;8.842;2022-12-29T01:41:21;98380.38;;;9.29;100.00
52927;BME280;40783;49.710;8.842;2022-12-29T01:43:52;98378.03;;;9.34;100.00
52927;BME280;40783;49.710;8.842;2022-12-29T01:48:52;98375.88;;;9.38;100.00
52927;BME280;40783;49.710;8.842;2022-12-29T01:51:22;98380.34;;;9.45;100.00
52927;BME280;40783;49.710;8.842;2022-12-29T01:53:48;98375.53;;;9.49;100.00
52927;BME280;40783;49.710;8.842;2022-12-29T01:56:17;98357.53;;;9.43;100.00
52927;BME280;40783;49.710;8.842;2022-12-29T01:58:48;98373.34;;;9.53;100.00
52927;BME280;40783;49.710;8.842;2022-12-29T02:01:16;98360.84;;;9.53;100.00
52927;BME280;40783;49.710;8.842;2022-12-29T02:03:45;98356.66;;;9.50;100.00
52927;BME280;40783;49.710;8.842;2022-12-29T02:06:16;98356.19;;;9.47;100.00
52927;BME280;40783;49.710;8.842;2022-12-29T02:08:46;98355.53;;;9.37;100.00
52927;BME280;40783;49.710;8.842;2022-12-29T02:11:15;98362.19;;;9.41;100.00
52927;BME280;40783;49.710;8.842;2022-12-29T02:13:43;98360.19;;;9.43;100.00
52927;BME280;40783;49.710;8.842;2022-12-29T02:21:45;98347.16;;;9.48;100.00
52927;BME280;40783;49.710;8.842;2022-12-29T02:30:06;98342.75;;;9.63;100.00
52927;BME280;40783;49.710;8.842;2022-12-29T02:33:13;98341.75;;;9.64;100.00
52927;BME280;40783;49.710;8.842;2022-12-29T02:41:19;98334.59;;;9.65;100.00
52927;BME280;40783;49.710;8.842;2022-12-29T02:44:04;98330.41;;;9.71;100.00
52927;BME280;40783;49.710;8.842;2022-12-29T02:46:37;98318.06;;;9.70;100.00
52927;BME280;40783;49.710;8.842;2022-12-29T02:54:26;98321.72;;;9.69;100.00
52927;BME280;40783;49.710;8.842;2022-12-29T02:57:15;98326.72;;;9.72;100.00
52927;BME280;40783;49.710;8.842;2022-12-29T03:02:27;98321.72;;;9.69;100.00
52927;BME280;40783;49.710;8.842;2022-12-29T03:05:19;98318.06;;;9.70;100.00
52927;BME280;40783;49.710;8.842;2022-12-29T03:16:14;98322.06;;;9.65;100.00
52927;BME280;40783;49.710;8.842;2022-12-29T03:18:57;98316.91;;;9.64;100.00
52927;BME280;40783;49.710;8.842;2022-12-29T03:24:16;98313.41;;;9.63;100.00
52927;BME280;40783;49.710;8.842;2022-12-29T03:26:46;98308.06;;;9.63;100.00
52927;BME280;40783;49.710;8.842;2022-12-29T03:29:16;98310.56;;;9.65;100.00
52927;BME280;40783;49.710;8.842;2022-12-29T03:31:43;98304.38;;;9.64;100.00
52927;BME280;40783;49.710;8.842;2022-12-29T03:34:10;98309.56;;;9.66;100.00
52927;BME280;40783;49.710;8.842;2022-12-29T03:36:47;98305.88;;;9.75;100.00
52927;BME280;40783;49.710;8.842;2022-12-29T03:39:13;98300.03;;;9.72;100.00
52927;BME280;40783;49.710;8.842;2022-12-29T03:41:43;98289.34;;;9.72;100.00
52927;BME280;40783;49.710;8.842;2022-12-29T03:44:13;98283.38;;;9.61;100.00
52927;BME280;40783;49.710;8.842;2022-12-29T03:46:43;98284.78;;;9.49;100.00
52927;BME280;40783;49.710;8.842;2022-12-29T03:49:08;98290.13;;;9.49;100.00
52927;BME280;40783;49.710;8.842;2022-12-29T03:51:34;98295.13;;;9.52;100.00
52927;BME280;40783;49.710;8.842;2022-12-29T03:53:59;98297.59;;;9.54;100.00
52927;BME280;40783;49.710;8.842;2022-12-29T03:56:29;98289.91;;;9.59;100.00
52927;BME280;40783;49.710;8.842;2022-12-29T03:58:56;98287.91;;;9.61;100.00
52927;BME280;40783;49.710;8.842;2022-12-29T04:01:21;98290.03;;;9.65;100.00
52927;BME280;40783;49.710;8.842;2022-12-29T04:03:47;98296.69;;;9.70;100.00
52927;BME280;40783;49.710;8.842;2022-12-29T04:06:12;98276.38;;;9.60;100.00
52927;BME280;40783;49.710;8.842;2022-12-29T04:08:37;98281.38;;;9.63;100.00
52927;BME280;40783;49.710;8.842;2022-12-29T04:11:03;98277.03;;;9.62;100.00
52927;BME280;40783;49.710;8.842;2022-12-29T04:13:31;98276.66;;;9.74;100.00
52927;BME280;40783;49.710;8.842;2022-12-29T04:15:59;98279.00;;;9.69;100.00
52927;BME280;40783;49.710;8.842;2022-12-29T04:18:26;98283.66;;;9.75;100.00
52927;BME280;40783;49.710;8.842;2022-12-29T04:20:52;98276.28;;;9.85;100.00
52927;BME280;40783;49.710;8.842;2022-12-29T04:23:29;98280.66;;;9.78;100.00
52927;BME280;40783;49.710;8.842;2022-12-29T04:25:54;98272.59;;;9.86;100.00
52927;BME280;40783;49.710;8.842;2022-12-29T04:28:20;98274.72;;;9.91;100.00
52927;BME280;40783;49.710;8.842;2022-12-29T04:30:46;98262.84;;;10.02;100.00
52927;BME280;40783;49.710;8.842;2022-12-29T04:33:11;98262.84;;;10.02;100.00
52927;BME280;40783;49.710;8.842;2022-12-29T04:35:37;98261.50;;;9.98;100.00
52927;BME280;40783;49.710;8.842;2022-12-29T04:38:02;98267.56;;;9.91;100.00
52927;BME280;40783;49.710;8.842;2022-12-29T04:40:28;98256.88;;;9.91;100.00
52927;BME280;40783;49.710;8.842;2022-12-29T04:42:56;98258.53;;;9.92;100.00
52927;BME280;40783;49.710;8.842;2022-12-29T04:45:26;98243.53;;;9.91;100.00
52927;BME280;40783;49.710;8.842;2022-12-29T04:47:51;98247.50;;;9.95;100.00
52927;BME280;40783;49.710;8.842;2022-12-29T04:50:16;98238.84;;;9.93;100.00
52927;BME280;40783;49.710;8.842;2022-12-29T04:52:44;98247.50;;;9.95;100.00
52927;BME280;40783;49.710;8.842;2022-12-29T04:55:12;98255.09;;;10.07;100.00
52927;BME280;40783;49.710;8.842;2022-12-29T04:57:39;98250.47;;;10.01;100.00
52927;BME280;40783;49.710;8.842;2022-12-29T05:00:06;98251.41;;;10.08;100.00
52927;BME280;40783;49.710;8.842;2022-12-29T05:02:31;98258.81;;;10.06;100.00
52927;BME280;40783;49.710;8.842;2022-12-29T05:04:59;98255.81;;;10.01;100.00
52927;BME280;40783;49.710;8.842;2022-12-29T05:07:24;98275.53;;;10.00;100.00
52927;BME280;40783;49.710;8.842;2022-12-29T05:09:50;98263.47;;;10.04;100.00
52927;BME280;40783;49.710;8.842;2022-12-29T05:12:15;98270.66;;;10.03;100.00
52927;BME280;40783;49.710;8.842;2022-12-29T05:14:43;98271.13;;;10.07;100.00
52927;BME280;40783;49.710;8.842;2022-12-29T05:17:10;98269.94;;;10.09;100.00
52927;BME280;40783;49.710;8.842;2022-12-29T05:19:36;98275.44;;;10.08;100.00
52927;BME280;40783;49.710;8.842;2022-12-29T05:22:03;98272.78;;;10.08;100.00
52927;BME280;40783;49.710;8.842;2022-12-29T05:24:31;98280.16;;;10.06;100.00
52927;BME280;40783;49.710;8.842;2022-12-29T05:26:56;98276.47;;;10.07;100.00
52927;BME280;40783;49.710;8.842;2022-12-29T05:29:21;98263.47;;;10.04;100.00
52927;BME280;40783;49.710;8.842;2022-12-29T05:31:47;98280.16;;;10.06;100.00
52927;BME280;40783;49.710;8.842;2022-12-29T05:34:14;98259.16;;;10.03;100.00
52927;BME280;40783;49.710;8.842;2022-12-29T05:36:40;98267.81;;;10.05;100.00
52927;BME280;40783;49.710;8.842;2022-12-29T05:39:05;98262.84;;;10.02;100.00
52927;BME280;40783;49.710;8.842;2022-12-29T05:41:35;98260.06;;;10.10;100.00
52927;BME280;40783;49.710;8.842;2022-12-29T05:44:03;98278.13;;;10.08;100.00
52927;BME280;40783;49.710;8.842;2022-12-29T05:46:28;98265.06;;;10.13;100.00
52927;BME280;40783;49.710;8.842;2022-12-29T05:48:54;98272.56;;;10.18;100.00
52927;BME280;40783;49.710;8.842;2022-12-29T05:51:19;98256.41;;;10.11;100.00
52927;BME280;40783;49.710;8.842;2022-12-29T05:53:44;98263.41;;;10.12;100.00
52927;BME280;40783;49.710;8.842;2022-12-29T05:56:14;98268.41;;;10.15;100.00
52927;BME280;40783;49.710;8.842;2022-12-29T05:58:39;98258.06;;;10.12;100.00
52927;BME280;40783;49.710;8.842;2022-12-29T06:01:07;98260.63;;;10.05;100.00
52927;BME280;40783;49.710;8.842;2022-12-29T06:03:32;98262.59;;;10.12;100.00
52927;BME280;40783;49.710;8.842;2022-12-29T06:06:00;98267.59;;;10.15;100.00
52927;BME280;40783;49.710;8.842;2022-12-29T06:08:26;98252.38;;;10.15;100.00
52927;BME280;40783;49.710;8.842;2022-12-29T06:10:55;98250.53;;;10.16;100.00
52927;BME280;40783;49.710;8.842;2022-12-29T06:13:21;98252.38;;;10.15;100.00
52927;BME280;40783;49.710;8.842;2022-12-29T06:15:48;98249.00;;;10.21;100.00
52927;BME280;40783;49.710;8.842;2022-12-29T06:18:13;98248.69;;;10.16;100.00
52927;BME280;40783;49.710;8.842;2022-12-29T06:20:39;98253.22;;;10.16;100.00
52927;BME280;40783;49.710;8.842;2022-12-29T06:23:04;98263.41;;;10.12;100.00
52927;BME280;40783;49.710;8.842;2022-12-29T06:25:30;98242.38;;;10.09;100.00
52927;BME280;40783;49.710;8.842;2022-12-29T06:27:57;98250.13;;;10.04;100.00
52927;BME280;40783;49.710;8.842;2022-12-29T06:30:25;98255.59;;;10.10;100.00
52927;BME280;40783;49.710;8.842;2022-12-29T06:32:52;98260.81;;;10.04;100.00
52927;BME280;40783;49.710;8.842;2022-12-29T06:35:23;98266.72;;;10.14;100.00
52927;BME280;40783;49.710;8.842;2022-12-29T06:37:53;98259.72;;;10.13;100.00
52927;BME280;40783;49.710;8.842;2022-12-29T06:40:18;98263.41;;;10.12;100.00
52927;BME280;40783;49.710;8.842;2022-12-29T06:42:44;98256.75;;;10.08;100.00
52927;BME280;40783;49.710;8.842;2022-12-29T06:45:09;98256.75;;;10.08;100.00
52927;BME280;40783;49.710;8.842;2022-12-29T06:47:35;98275.19;;;10.03;100.00
52927;BME280;40783;49.710;8.842;2022-12-29T06:50:00;98272.78;;;10.08;100.00
52927;BME280;40783;49.710;8.842;2022-12-29T06:52:26;98257.75;;;10.07;100.00
52927;BME280;40783;49.710;8.842;2022-12-29T06:54:53;98259.16;;;10.03;100.00
52927;BME280;40783;49.710;8.842;2022-12-29T06:57:19;98260.94;;;10.10;100.00
52927;BME280;40783;49.710;8.842;2022-12-29T06:59:44;98261.97;;;10.01;100.00
52927;BME280;40783;49.710;8.842;2022-12-29T07:02:11;98257.75;;;10.07;100.00
52927;BME280;40783;49.710;8.842;2022-12-29T07:04:41;98262.47;;;10.05;100.00
52927;BME280;40783;49.710;8.842;2022-12-29T07:07:09;98265.50;;;10.02;100.00
52927;BME280;40783;49.710;8.842;2022-12-29T07:09:34;98265.44;;;10.10;100.00
52927;BME280;40783;49.710;8.842;2022-12-29T07:11:59;98277.78;;;10.11;100.00
52927;BME280;40783;49.710;8.842;2022-12-29T07:14:25;98281.25;;;10.20;100.00
52927;BME280;40783;49.710;8.842;2022-12-29T07:16:52;98281.41;;;10.18;100.00
52927;BME280;40783;49.710;8.842;2022-12-29T07:19:20;98274.41;;;10.17;100.00
52927;BME280;40783;49.710;8.842;2022-12-29T07:21:45;98279.94;;;10.16;100.00
52927;BME280;40783;49.710;8.842;2022-12-29T07:24:15;98270.06;;;10.16;100.00
52927;BME280;40783;49.710;8.842;2022-12-29T07:26:41;98279.03;;;10.23;100.00
52927;BME280;40783;49.710;8.842;2022-12-29T07:29:08;98280.69;;;10.24;100.00
52927;BME280;40783;49.710;8.842;2022-12-29T07:31:33;98279.69;;;10.25;100.00
52927;BME280;40783;49.710;8.842;2022-12-29T07:33:58;98281.09;;;10.13;100.00
52927;BME280;40783;49.710;8.842;2022-12-29T07:36:24;98283.13;;;10.11;100.00
52927;BME280;40783;49.710;8.842;2022-12-29T07:38:49;98289.78;;;10.15;100.00
52927;BME280;40783;49.710;8.842;2022-12-29T07:41:14;98286.44;;;10.13;100.00
52927;BME280;40783;49.710;8.842;2022-12-29T07:43:40;98297.47;;;10.10;100.00
52927;BME280;40783;49.710;8.842;2022-12-29T07:46:10;98290.84;;;10.06;100.00
52927;BME280;40783;49.710;8.842;2022-12-29T07:48:35;98288.34;;;10.04;100.00
52927;BME280;40783;49.710;8.842;2022-12-29T07:51:02;98288.34;;;10.04;100.00
52927;BME280;40783;49.710;8.842;2022-12-29T07:53:31;98295.13;;;10.15;100.00
52927;BME280;40783;49.710;8.842;2022-12-29T07:56:03;98293.03;;;10.25;100.00
52927;BME280;40783;49.710;8.842;2022-12-29T07:58:28;98301.78;;;10.19;100.00
52927;BME280;40783;49.710;8.842;2022-12-29T08:00:56;98302.72;;;10.27;100.00
52927;BME280;40783;49.710;8.842;2022-12-29T08:03:24;98304.03;;;10.31;100.00
52927;BME280;40783;49.710;8.842;2022-12-29T08:05:51;98300.41;;;10.23;100.00
52927;BME280;40783;49.710;8.842;2022-12-29T08:08:16;98311.94;;;10.24;100.00
52927;BME280;40783;49.710;8.842;2022-12-29T08:10:41;98315.78;;;10.21;100.00
52927;BME280;40783;49.710;8.842;2022-12-29T08:13:08;98314.06;;;10.29;100.00
52927;BME280;40783;49.710;8.842;2022-12-29T08:15:33;98316.75;;;10.29;100.00
52927;BME280;40783;49.710;8.842;2022-12-29T08:17:59;98311.41;;;10.29;100.00
52927;BME280;40783;49.710;8.842;2022-12-29T08:20:27;98320.72;;;10.41;100.00
52927;BME280;40783;49.710;8.842;2022-12-29T08:22:52;98315.38;;;10.41;100.00
52927;BME280;40783;49.710;8.842;2022-12-29T08:25:17;98322.38;;;10.42;100.00
52927;BME280;40783;49.710;8.842;2022-12-29T08:27:45;98325.03;;;10.42;100.00
52927;BME280;40783;49.710;8.842;2022-12-29T08:30:11;98320.00;;;10.47;100.00
52927;BME280;40783;49.710;8.842;2022-12-29T08:32:43;98321.31;;;10.51;100.00
52927;BME280;40783;49.710;8.842;2022-12-29T08:35:08;98322.84;;;10.46;100.00
52927;BME280;40783;49.710;8.842;2022-12-29T08:37:34;98326.66;;;10.51;100.00
52927;BME280;40783;49.710;8.842;2022-12-29T08:39:59;98304.31;;;10.44;100.00
52927;BME280;40783;49.710;8.842;2022-12-29T08:42:28;98320.34;;;10.44;100.00
52927;BME280;40783;49.710;8.842;2022-12-29T08:45:00;98313.66;;;10.48;100.00
52927;BME280;40783;49.710;8.842;2022-12-29T08:47:26;98316.63;;;10.53;100.00
52927;BME280;40783;49.710;8.842;2022-12-29T08:49:51;98307.16;;;10.66;100.00
52927;BME280;40783;49.710;8.842;2022-12-29T08:52:17;98316.47;;;10.70;100.00
52927;BME280;40783;49.710;8.842;2022-12-29T08:54:42;98301.44;;;10.69;100.00
52927;BME280;40783;49.710;8.842;2022-12-29T08:57:07;98296.44;;;10.66;100.00
52927;BME280;40783;49.710;8.842;2022-12-29T08:59:33;98309.16;;;10.64;100.00
52927;BME280;40783;49.710;8.842;2022-12-29T09:02:03;98300.13;;;10.65;100.00
52927;BME280;40783;49.710;8.842;2022-12-29T09:04:31;98305.03;;;10.61;100.00
52927;BME280;40783;49.710;8.842;2022-12-29T09:07:03;98298.09;;;10.67;100.00
52927;BME280;40783;49.710;8.842;2022-12-29T09:09:28;98295.22;;;10.53;100.00
52927;BME280;40783;49.710;8.842;2022-12-29T09:11:53;98302.53;;;10.60;100.00
52927;BME280;40783;49.710;8.842;2022-12-29T09:14:19;98314.88;;;10.61;100.00
52927;BME280;40783;49.710;8.842;2022-12-29T09:16:46;98307.16;;;10.66;100.00
52927;BME280;40783;49.710;8.842;2022-12-29T09:19:30;98312.78;;;10.71;100.00
52927;BME280;40783;49.710;8.842;2022-12-29T09:21:56;98322.72;;;10.62;100.00
52927;BME280;40783;49.710;8.842;2022-12-29T09:24:21;98331.66;;;10.54;100.00
52927;BME280;40783;49.710;8.842;2022-12-29T09:26:46;98321.31;;;10.51;100.00
52927;BME280;40783;49.710;8.842;2022-12-29T09:29:14;98322.72;;;10.39;100.00
52927;BME280;40783;49.710;8.842;2022-12-29T09:31:39;98327.09;;;10.32;100.00
52927;BME280;40783;49.710;8.842;2022-12-29T09:34:04;98326.25;;;10.31;100.00
52927;BME280;40783;49.710;8.842;2022-12-29T09:36:29;98321.38;;;10.35;100.00
52927;BME280;40783;49.710;8.842;2022-12-29T09:38:55;98328.06;;;10.39;100.00
52927;BME280;40783;49.710;8.842;2022-12-29T09:41:37;98329.03;;;10.46;100.00
52927;BME280;40783;49.710;8.842;2022-12-29T09:46:49;98328.69;;;10.49;100.00
52927;BME280;40783;49.710;8.842;2022-12-29T09:51:54;98327.63;;;10.59;100.00
52927;BME280;40783;49.710;8.842;2022-12-29T09:54:40;98332.47;;;10.55;100.00
52927;BME280;40783;49.710;8.842;2022-12-29T09:57:28;98330.28;;;10.59;100.00
52927;BME280;40783;49.710;8.842;2022-12-29T10:00:05;98338.13;;;10.60;100.00
52927;BME280;40783;49.710;8.842;2022-12-29T10:05:20;98326.88;;;10.65;100.00
52927;BME280;40783;49.710;8.842;2022-12-29T10:07:54;98346.94;;;10.61;100.00
52927;BME280;40783;49.710;8.842;2022-12-29T10:19:03;98341.34;;;10.94;100.00
52927;BME280;40783;49.710;8.842;2022-12-29T10:24:13;98352.09;;;11.24;100.00
52927;BME280;40783;49.710;8.842;2022-12-29T10:26:43;98352.69;;;11.34;100.00
52927;BME280;40783;49.710;8.842;2022-12-29T10:29:20;98351.09;;;11.40;100.00
52927;BME280;40783;49.710;8.842;2022-12-29T10:34:24;98358.59;;;11.45;100.00
52927;BME280;40783;49.710;8.842;2022-12-29T10:37:21;98359.34;;;11.38;100.00
52927;BME280;40783;49.710;8.842;2022-12-29T10:39:58;98360.44;;;11.29;100.00
52927;BME280;40783;49.710;8.842;2022-12-29T10:42:34;98359.84;;;11.19;100.00
52927;BME280;40783;49.710;8.842;2022-12-29T10:45:17;98361.50;;;11.20;100.00
52927;BME280;40783;49.710;8.842;2022-12-29T10:48:05;98352.47;;;11.21;100.00
52927;BME280;40783;49.710;8.842;2022-12-29T10:50:33;98358.47;;;11.23;100.00
52927;BME280;40783;49.710;8.842;2022-12-29T10:53:04;98362.00;;;11.23;100.00
52927;BME280;40783;49.710;8.842;2022-12-29T10:55:38;98352.59;;;11.27;100.00
52927;BME280;40783;49.710;8.842;2022-12-29T10:58:11;98362.09;;;11.30;100.00
52927;BME280;40783;49.710;8.842;2022-12-29T11:00:38;98366.88;;;11.20;100.00
52927;BME280;40783;49.710;8.842;2022-12-29T11:08:22;98361.13;;;11.08;100.00
52927;BME280;40783;49.710;8.842;2022-12-29T11:11:25;98357.06;;;10.97;100.00
52927;BME280;40783;49.710;8.842;2022-12-29T11:14:18;98359.78;;;10.89;100.00
52927;BME280;40783;49.710;8.842;2022-12-29T11:16:46;98364.53;;;10.78;100.00
52927;BME280;40783;49.710;8.842;2022-12-29T11:19:23;98364.53;;;10.78;100.00
52927;BME280;40783;49.710;8.842;2022-12-29T11:21:50;98366.22;;;10.79;100.00
52927;BME280;40783;49.710;8.842;2022-12-29T11:24:27;98361.81;;;10.87;100.00
52927;BME280;40783;49.710;8.842;2022-12-29T11:26:54;98366.88;;;10.81;100.00
52927;BME280;40783;49.710;8.842;2022-12-29T11:29:39;98366.81;;;10.90;100.00
52927;BME280;40783;49.710;8.842;2022-12-29T11:32:31;98369.56;;;10.96;100.00
52927;BME280;40783;49.710;8.842;2022-12-29T11:34:58;98388.19;;;10.90;100.00
52927;BME280;40783;49.710;8.842;2022-12-29T11:37:31;98405.44;;;10.87;100.00
52927;BME280;40783;49.710;8.842;2022-12-29T11:42:39;98428.78;;;9.99;100.00
52927;BME280;40783;49.710;8.842;2022-12-29T11:45:26;98432.53;;;9.64;100.00
52927;BME280;40783;49.710;8.842;2022-12-29T11:47:58;98411.84;;;9.58;100.00
52927;BME280;40783;49.710;8.842;2022-12-29T11:50:30;98413.69;;;9.58;100.00
52927;BME280;40783;49.710;8.842;2022-12-29T11:53:15;98415.50;;;9.74;100.00
52927;BME280;40783;49.710;8.842;2022-12-29T11:56:20;98412.13;;;9.80;100.00
52927;BME280;40783;49.710;8.842;2022-12-29T11:58:51;98413.81;;;9.73;100.00
52927;BME280;40783;49.710;8.842;2022-12-29T12:01:43;98422.50;;;9.75;100.00
52927;BME280;40783;49.710;8.842;2022-12-29T12:04:13;98418.81;;;9.76;100.00
52927;BME280;40783;49.710;8.842;2022-12-29T12:06:46;98414.81;;;9.80;100.00
52927;BME280;40783;49.710;8.842;2022-12-29T12:09:35;98422.28;;;9.85;100.00
52927;BME280;40783;49.710;8.842;2022-12-29T12:12:08;98407.13;;;9.85;100.00
52927;BME280;40783;49.710;8.842;2022-12-29T12:14:41;98404.16;;;9.72;100.00
52927;BME280;40783;49.710;8.842;2022-12-29T12:20:10;98406.47;;;9.75;100.00
52927;BME280;40783;49.710;8.842;2022-12-29T12:25:39;98379.91;;;9.82;100.00
52927;BME280;40783;49.710;8.842;2022-12-29T12:30:56;98405.75;;;9.98;100.00
52927;BME280;40783;49.710;8.842;2022-12-29T12:33:29;98404.09;;;9.97;100.00
52927;BME280;40783;49.710;8.842;2022-12-29T12:39:05;98411.09;;;9.98;100.00
52927;BME280;40783;49.710;8.842;2022-12-29T12:41:48;98400.06;;;10.01;100.00
52927;BME280;40783;49.710;8.842;2022-12-29T12:44:52;98404.09;;;9.97;100.00
52927;BME280;40783;49.710;8.842;2022-12-29T12:58:27;98382.38;;;10.00;100.00
52927;BME280;40783;49.710;8.842;2022-12-29T13:01:14;98385.84;;;10.00;100.00
52927;BME280;40783;49.710;8.842;2022-12-29T13:14:46;98392.38;;;10.06;100.00
52927;BME280;40783;49.710;8.842;2022-12-29T13:17:35;98387.31;;;10.11;100.00
52927;BME280;40783;49.710;8.842;2022-12-29T13:20:20;98387.63;;;10.16;100.00
52927;BME280;40783;49.710;8.842;2022-12-29T13:23:01;98389.59;;;10.22;100.00
52927;BME280;40783;49.710;8.842;2022-12-29T13:25:34;98409.63;;;10.27;100.00
52927;BME280;40783;49.710;8.842;2022-12-29T13:36:15;98401.50;;;10.12;100.00
52927;BME280;40783;49.710;8.842;2022-12-29T13:38:46;98394.84;;;10.07;100.00
52927;BME280;40783;49.710;8.842;2022-12-29T13:41:29;98397.72;;;10.06;100.00
52927;BME280;40783;49.710;8.842;2022-12-29T13:44:00;98393.06;;;10.00;100.00
52927;BME280;40783;49.710;8.842;2022-12-29T13:46:33;98392.88;;;10.01;100.00
52927;BME280;40783;49.710;8.842;2022-12-29T13:49:04;98397.72;;;10.06;100.00
52927;BME280;40783;49.710;8.842;2022-12-29T13:51:34;98400.75;;;9.94;100.00
52927;BME280;40783;49.710;8.842;2022-12-29T13:56:54;98405.44;;;9.92;100.00
52927;BME280;40783;49.710;8.842;2022-12-29T14:02:01;98400.44;;;9.81;100.00
52927;BME280;40783;49.710;8.842;2022-12-29T14:04:30;98395.78;;;9.75;100.00
52927;BME280;40783;49.710;8.842;2022-12-29T14:07:18;98416.81;;;9.78;100.00
52927;BME280;40783;49.710;8.842;2022-12-29T14:09:55;98419.84;;;9.67;100.00
52927;BME280;40783;49.710;8.842;2022-12-29T14:12:28;98429.50;;;9.76;100.00
52927;BME280;40783;49.710;8.842;2022-12-29T14:17:40;98427.38;;;9.71;100.00
52927;BME280;40783;49.710;8.842;2022-12-29T14:20:17;98428.69;;;9.67;100.00
52927;BME280;40783;49.710;8.842;2022-12-29T14:23:01;98439.53;;;9.57;100.00
52927;BME280;40783;49.710;8.842;2022-12-29T14:28:34;98449.91;;;9.52;100.00
52927;BME280;40783;49.710;8.842;2022-12-29T14:31:03;98453.06;;;9.47;100.00
52927;BME280;40783;49.710;8.842;2022-12-29T14:33:31;98453.25;;;9.38;100.00
52927;BME280;40783;49.710;8.842;2022-12-29T14:38:44;98457.13;;;9.27;100.00
52927;BME280;40783;49.710;8.842;2022-12-29T14:44:23;98469.94;;;9.15;100.00
52927;BME280;40783;49.710;8.842;2022-12-29T14:49:24;98485.09;;;8.98;100.00
52927;BME280;40783;49.710;8.842;2022-12-29T14:51:55;98487.25;;;8.86;100.00
52927;BME280;40783;49.710;8.842;2022-12-29T14:57:07;98472.91;;;8.87;100.00
52927;BME280;40783;49.710;8.842;2022-12-29T14:59:34;98491.56;;;8.79;100.00
52927;BME280;40783;49.710;8.842;2022-12-29T15:02:03;98489.22;;;8.84;100.00
52927;BME280;40783;49.710;8.842;2022-12-29T15:04:33;98480.88;;;8.79;100.00
52927;BME280;40783;49.710;8.842;2022-12-29T15:07:02;98491.69;;;8.77;100.00
52927;BME280;40783;49.710;8.842;2022-12-29T15:09:34;98491.53;;;8.70;100.00
52927;BME280;40783;49.710;8.842;2022-12-29T15:15:01;98497.22;;;8.75;100.00
52927;BME280;40783;49.710;8.842;2022-12-29T15:17:32;98495.38;;;8.68;100.00
52927;BME280;40783;49.710;8.842;2022-12-29T15:22:44;98486.81;;;8.56;100.00
52927;BME280;40783;49.710;8.842;2022-12-29T15:25:15;98487.47;;;8.50;100.00
52927;BME280;40783;49.710;8.842;2022-12-29T15:27:49;98505.56;;;8.46;100.00
52927;BME280;40783;49.710;8.842;2022-12-29T15:30:15;98508.56;;;8.43;100.00
52927;BME280;40783;49.710;8.842;2022-12-29T15:32:47;98494.13;;;8.54;100.00